KGRF/GRF METAR and TAF weather

Enter ICAO airport designator
Station Type Date Time Source
KGRF METAR 2019/06/19 05:58 UTC NOAA

KGRF 190558Z AUTO 16007KT 10SM CLR 12/11 A3020 RMK AO2 SLP231 T01210112 10205 20121 52009 $


Station Type Date Time Source
KGRF Decoded METAR 2019/06/19 05:58 UTC NOAA

Fort Lewis / Gray U. S. Army Airfield, WA, United States (KGRF) 47-07N 122-33W 87M
Jun 19, 2019 - 01:58 AM EDT / 2019.06.19 0558 UTC
Wind: from the SSE (160 degrees) at 8 MPH (7 KT):0
Visibility: 10 mile(s):0
Sky conditions: clear
Temperature: 53.8 F (12.1 C)
Dew Point: 52.2 F (11.2 C)
Relative Humidity: 94%
Pressure (altimeter): 30.2 in. Hg (1022 hPa)
Pressure tendency: 0.03 inches (0.9 hPa) higher than three hours ago
ob: KGRF 190558Z AUTO 16007KT 10SM CLR 12/11 A3020 RMK AO2 SLP231 T01210112 10205 20121 52009
cycle: 6

Station Type Date Time Source
KGRF TAF 2019/06/19 05:03 UTC NOAA

TAF KGRF 190500Z 1905/2011 20009KT 9999 BKN030 QNH3015INS
BECMG 1911/1912 VRB06KT 9999 BKN020 QNH3018INS
BECMG 1920/1921 18010G15KT 9999 BKN030 QNH3013INS
BECMG 2003/2004 20010G15KT 8000 -SHRA BKN020 QNH3010INS TX17/1921Z TN09/1912Z

Example: see airport list